Time;durP1;ratioP1;P1;durP2;ratioP2;P2;SDS_P1;SDS_P2;PMS_P1;PMS_P2;Temp;Humidity;BMP_temperature;BMP_pressure;BME280_temperature;BME280_humidity;BME280_pressure;Samples;Min_cycle;Max_cycle;Signal;HPM_P1;HPM_P2
2021/08/12 00:01:51;;;;;;;10.65;7.80;;;;;;;22.90;69.63;100113.11;1608535;89;21233;-55
2021/08/12 00:04:57;;;;;;;9.33;7.20;;;;;;;22.90;69.60;100123.42;1608411;88;21284;-55
2021/08/12 00:08:02;;;;;;;13.93;7.90;;;;;;;22.85;69.62;100125.61;1608408;88;21260;-55
2021/08/12 00:11:07;;;;;;;11.55;7.95;;;;;;;22.81;69.76;100125.86;1608450;89;21229;-55
2021/08/12 00:14:12;;;;;;;10.48;8.05;;;;;;;22.75;69.95;100140.02;1608518;88;21256;-56
2021/08/12 00:17:20;;;;;;;8.98;7.67;;;;;;;22.70;70.11;100146.92;1612160;82;21268;-55
2021/08/12 00:20:26;;;;;;;10.98;8.10;;;;;;;22.65;70.19;100144.06;1608516;89;21274;-56
2021/08/12 00:23:31;;;;;;;8.53;7.45;;;;;;;22.60;70.19;100142.06;1608571;88;21781;-54
2021/08/12 00:26:37;;;;;;;12.75;7.22;;;;;;;22.59;70.24;100141.78;1608469;89;21298;-54
2021/08/12 00:29:42;;;;;;;10.63;7.95;;;;;;;22.57;70.20;100142.58;1604708;87;21825;-54
2021/08/12 00:32:49;;;;;;;11.15;8.00;;;;;;;22.54;70.05;100139.46;1630913;85;21371;-54
2021/08/12 00:35:54;;;;;;;10.32;7.65;;;;;;;22.53;70.07;100151.73;1654349;87;21772;-54
2021/08/12 00:39:01;;;;;;;11.63;7.50;;;;;;;22.51;70.37;100156.16;1654226;85;21417;-55
2021/08/12 00:42:06;;;;;;;10.68;7.78;;;;;;;22.50;70.15;100159.20;1654222;87;21346;-56
2021/08/12 00:45:13;;;;;;;13.20;8.60;;;;;;;22.48;70.16;100165.58;1654332;87;21458;-55
2021/08/12 00:48:20;;;;;;;11.25;7.10;;;;;;;22.46;70.12;100159.41;1654217;85;21434;-55
2021/08/12 00:51:26;;;;;;;10.13;7.53;;;;;;;22.44;69.84;100168.03;1654323;87;21189;-56
2021/08/12 00:54:31;;;;;;;11.78;7.60;;;;;;;22.43;69.37;100165.51;1654279;85;21413;-56
2021/08/12 00:57:38;;;;;;;10.13;7.03;;;;;;;22.40;69.03;100160.45;1654152;87;21374;-56
2021/08/12 01:00:44;;;;;;;8.80;7.33;;;;;;;22.36;68.83;100170.45;1654158;87;21434;-56
2021/08/12 01:03:51;;;;;;;7.53;6.65;;;;;;;22.31;68.56;100176.77;1654143;85;21398;-56
2021/08/12 01:07:10;;;;;;;10.15;7.12;;;;;;;22.25;68.38;100179.77;1631596;87;21379;-57
2021/08/12 01:10:23;;;;;;;8.45;6.60;;;;;;;22.19;68.18;100179.69;1654136;87;21426;-54
2021/08/12 01:14:13;;;;;;;8.35;7.45;;;;;;;22.14;68.12;100171.25;1654449;85;21307;-57
2021/08/12 01:17:22;;;;;;;7.95;7.08;;;;;;;22.07;68.16;100173.36;1654270;87;21461;-56
2021/08/12 01:20:39;;;;;;;13.08;7.20;;;;;;;22.04;68.17;100178.63;1581883;91;21470;-55
2021/08/12 01:23:45;;;;;;;10.45;7.40;;;;;;;22.01;67.92;100190.25;1589284;89;21335;-55
2021/08/12 01:26:52;;;;;;;8.00;6.47;;;;;;;21.95;67.74;100187.95;1586792;90;21254;-54
2021/08/12 01:30:15;;;;;;;11.38;7.17;;;;;;;21.91;67.53;100192.33;1586717;89;21360;-55
2021/08/12 01:33:37;;;;;;;8.60;7.12;;;;;;;21.90;67.22;100196.77;1586833;89;21821;-56
2021/08/12 01:36:46;;;;;;;8.25;6.10;;;;;;;21.86;66.79;100195.60;1586786;90;21294;-56
2021/08/12 01:39:52;;;;;;;9.68;5.83;;;;;;;21.81;66.54;100199.69;1586751;89;21278;-55
2021/08/12 01:42:57;;;;;;;9.35;6.40;;;;;;;21.78;66.42;100208.02;1586836;89;21250;-56
2021/08/12 01:46:05;;;;;;;11.60;7.08;;;;;;;21.75;66.20;100202.96;1586804;90;21250;-55
2021/08/12 01:49:11;;;;;;;11.50;6.40;;;;;;;21.74;66.14;100214.33;1586828;89;21274;-54
2021/08/12 01:52:16;;;;;;;9.35;6.40;;;;;;;21.70;65.97;100211.73;1586755;90;21226;-56
2021/08/12 01:55:22;;;;;;;7.90;6.25;;;;;;;21.68;65.93;100213.92;1586830;90;21271;-56
2021/08/12 01:58:30;;;;;;;10.95;7.00;;;;;;;21.65;65.80;100213.03;1586743;89;21805;-54
2021/08/12 02:01:35;;;;;;;9.90;6.00;;;;;;;21.63;65.58;100218.86;1586776;90;21351;-54
2021/08/12 02:04:41;;;;;;;8.03;6.37;;;;;;;21.60;65.51;100222.15;1586707;89;21767;-56
2021/08/12 02:07:48;;;;;;;10.30;6.22;;;;;;;21.57;65.57;100218.48;1586878;89;21815;-55
2021/08/12 02:10:52;;;;;;;8.30;6.12;;;;;;;21.55;65.53;100216.48;1586711;90;21266;-55
2021/08/12 02:13:59;;;;;;;8.43;6.60;;;;;;;21.53;65.44;100222.84;1586710;89;21278;-55
2021/08/12 02:17:04;;;;;;;11.10;6.10;;;;;;;21.49;65.25;100221.67;1586673;90;21311;-53
2021/08/12 02:20:13;;;;;;;10.28;6.45;;;;;;;21.44;65.13;100224.89;1609449;85;21325;-53
2021/08/12 02:23:33;;;;;;;8.00;5.72;;;;;;;21.42;64.88;100227.11;1621932;87;21518;-54
2021/08/12 02:26:58;;;;;;;8.18;6.05;;;;;;;21.41;64.70;100235.14;1621982;88;21248;-53
2021/08/12 02:30:03;;;;;;;9.60;6.22;;;;;;;21.37;64.54;100234.83;1622225;86;21256;-53
2021/08/12 02:33:08;;;;;;;8.23;6.33;;;;;;;21.31;64.54;100241.36;1654545;85;21243;-54
2021/08/12 02:36:15;;;;;;;7.90;6.30;;;;;;;21.29;64.77;100244.11;1654260;87;21255;-52
2021/08/12 02:39:21;;;;;;;11.25;6.28;;;;;;;21.25;64.75;100234.02;1654365;85;21247;-53
2021/08/12 02:42:27;;;;;;;8.70;6.40;;;;;;;21.23;64.91;100247.33;1654305;87;21375;-53
2021/08/12 02:45:33;;;;;;;10.08;6.58;;;;;;;21.21;64.78;100243.97;1654421;87;21251;-54
2021/08/12 02:48:38;;;;;;;9.00;6.35;;;;;;;21.17;64.70;100240.55;1654343;85;21414;-52
2021/08/12 02:51:44;;;;;;;9.65;6.40;;;;;;;21.15;64.67;100245.51;1654260;87;21267;-53
2021/08/12 02:54:52;;;;;;;9.20;6.33;;;;;;;21.12;64.64;100251.58;1654292;85;21244;-52
2021/08/12 02:57:58;;;;;;;8.78;6.45;;;;;;;21.10;64.56;100256.53;1654097;85;21243;-53
2021/08/12 03:01:04;;;;;;;8.03;6.42;;;;;;;21.09;64.46;100254.86;1654182;87;21232;-54
2021/08/12 03:04:11;;;;;;;10.13;6.20;;;;;;;21.03;64.55;100268.34;1654197;85;21397;-52
2021/08/12 03:07:17;;;;;;;11.83;5.90;;;;;;;20.97;64.66;100263.23;1654286;87;21235;-52
2021/08/12 03:10:24;;;;;;;7.95;6.65;;;;;;;20.94;64.74;100265.09;1654233;87;21402;-53
2021/08/12 03:13:31;;;;;;;8.13;6.33;;;;;;;20.89;64.70;100264.12;1654135;85;21390;-53
2021/08/12 03:16:37;;;;;;;12.80;6.60;;;;;;;20.85;64.78;100276.84;1654135;87;21248;-53
2021/08/12 03:19:43;;;;;;;9.63;6.15;;;;;;;20.82;64.87;100278.16;1654150;85;21836;-53
2021/08/12 03:22:50;;;;;;;8.65;6.55;;;;;;;20.80;64.99;100281.19;1634012;86;21293;-53
2021/08/12 03:25:56;;;;;;;13.18;6.78;;;;;;;20.80;65.00;100283.15;1633904;88;21491;-55
2021/08/12 03:29:01;;;;;;;9.15;6.40;;;;;;;20.77;65.02;100281.69;1633912;86;21273;-52
2021/08/12 03:32:08;;;;;;;9.53;7.08;;;;;;;20.79;65.16;100284.22;1633980;88;21557;-52
2021/08/12 03:35:13;;;;;;;9.53;6.95;;;;;;;20.82;65.40;100285.12;1634027;88;21283;-52
2021/08/12 03:38:21;;;;;;;8.35;5.97;;;;;;;20.86;65.33;100289.13;1634160;86;21236;-53
2021/08/12 03:41:26;;;;;;;12.80;6.70;;;;;;;20.91;65.11;100287.84;1634100;88;21205;-53
2021/08/12 03:44:31;;;;;;;9.68;6.05;;;;;;;20.92;65.08;100293.70;1633931;86;21637;-53
2021/08/12 03:47:39;;;;;;;11.78;6.85;;;;;;;20.93;65.05;100292.59;1633909;88;21244;-53
2021/08/12 03:50:46;;;;;;;9.50;6.90;;;;;;;20.97;65.06;100297.17;1633992;88;21739;-53
2021/08/12 03:53:52;;;;;;;9.43;6.55;;;;;;;21.00;65.27;100298.92;1633928;86;21286;-52
2021/08/12 03:56:57;;;;;;;11.35;6.30;;;;;;;21.04;65.41;100293.15;1633950;88;21643;-53
2021/08/12 04:00:03;;;;;;;10.72;6.75;;;;;;;21.10;65.22;100293.58;1634041;86;21742;-52
2021/08/12 04:03:12;;;;;;;7.92;6.22;;;;;;;21.12;64.95;100291.37;1633986;86;21318;-53
2021/08/12 04:06:19;;;;;;;10.93;6.28;;;;;;;21.12;64.77;100294.16;1633846;88;21372;-53
2021/08/12 04:09:25;;;;;;;8.30;6.22;;;;;;;21.05;64.90;100289.30;1633987;86;21253;-54
2021/08/12 04:12:31;;;;;;;8.90;6.60;;;;;;;21.06;65.13;100295.72;1633878;88;21230;-54
2021/08/12 04:15:36;;;;;;;12.28;7.45;;;;;;;21.06;65.20;100299.89;1633977;88;21296;-55
2021/08/12 04:18:41;;;;;;;12.00;6.80;;;;;;;21.07;65.43;100301.04;1634041;86;21289;-54
2021/08/12 04:21:46;;;;;;;9.85;6.70;;;;;;;21.13;65.48;100301.97;1633585;85;21828;-54
2021/08/12 04:24:52;;;;;;;10.50;6.78;;;;;;;21.16;65.30;100310.69;1621703;87;21241;-54
2021/08/12 04:27:57;;;;;;;10.60;7.37;;;;;;;21.21;65.16;100310.80;1621645;87;21416;-54
2021/08/12 04:31:02;;;;;;;9.25;6.87;;;;;;;21.22;65.04;100312.48;1621673;88;21420;-54
2021/08/12 04:34:12;;;;;;;8.63;6.53;;;;;;;21.27;65.04;100313.98;1621653;87;21270;-53
2021/08/12 04:37:18;;;;;;;8.78;6.67;;;;;;;21.30;64.95;100310.70;1621728;88;21415;-54
2021/08/12 04:40:26;;;;;;;8.48;7.05;;;;;;;21.37;65.01;100315.59;1621681;87;21274;-55
2021/08/12 04:43:34;;;;;;;10.65;7.22;;;;;;;21.46;64.93;100311.85;1606330;88;21267;-55
2021/08/12 04:46:41;;;;;;;10.80;6.65;;;;;;;21.48;64.73;100313.84;1607838;89;21833;-52
2021/08/12 04:49:46;;;;;;;9.85;6.85;;;;;;;21.49;64.55;100309.42;1608068;88;21270;-53
2021/08/12 04:52:52;;;;;;;8.45;6.78;;;;;;;21.53;64.57;100311.99;1607110;88;21756;-54
2021/08/12 04:55:57;;;;;;;9.38;6.67;;;;;;;21.58;64.43;100319.06;1648960;87;21410;-54
2021/08/12 04:59:03;;;;;;;8.15;6.70;;;;;;;21.58;64.54;100314.88;1648515;85;21813;-57
2021/08/12 05:02:09;;;;;;;9.58;6.70;;;;;;;21.63;64.63;100320.56;1648139;87;21208;-56
2021/08/12 05:05:19;;;;;;;11.22;7.53;;;;;;;21.69;64.68;100328.48;1596146;90;21224;-55
2021/08/12 05:08:26;;;;;;;8.15;6.50;;;;;;;21.74;64.58;100321.05;1620365;87;21296;-53
2021/08/12 05:11:32;;;;;;;13.53;6.78;;;;;;;21.84;64.42;100324.61;1598705;89;21285;-53
2021/08/12 05:14:40;;;;;;;10.78;6.72;;;;;;;21.91;64.29;100326.14;1576451;88;21271;-53
2021/08/12 05:17:46;;;;;;;8.48;6.90;;;;;;;22.00;64.02;100330.77;1603276;88;21275;-54
2021/08/12 05:20:53;;;;;;;8.38;6.80;;;;;;;22.05;63.85;100333.11;1608666;89;21239;-53
2021/08/12 05:24:00;;;;;;;7.47;6.40;;;;;;;22.12;63.65;100332.92;1608573;86;21283;-51
2021/08/12 05:27:06;;;;;;;9.20;7.03;;;;;;;22.18;63.39;100333.33;1650134;85;21812;-51
2021/08/12 05:30:14;;;;;;;9.10;7.05;;;;;;;22.23;63.39;100336.75;1651961;87;21219;-51
2021/08/12 05:33:20;;;;;;;13.50;7.72;;;;;;;22.28;63.09;100339.63;1639862;85;21283;-52
2021/08/12 05:36:28;;;;;;;10.58;6.95;;;;;;;22.28;63.14;100344.64;1652253;86;22055;-51
2021/08/12 05:39:33;;;;;;;7.65;6.20;;;;;;;22.31;63.15;100337.16;1655653;85;21302;-50
2021/08/12 05:42:37;;;;;;;9.03;6.28;;;;;;;22.37;63.11;100335.31;1656575;86;21194;-51
2021/08/12 05:45:43;;;;;;;6.67;5.62;;;;;;;22.44;62.95;100337.41;1657060;86;21612;-50
2021/08/12 05:48:48;;;;;;;8.35;6.50;;;;;;;22.52;62.50;100338.37;1657214;85;21296;-52
2021/08/12 05:51:59;;;;;;;8.45;6.12;;;;;;;22.57;62.29;100339.85;1657091;86;21345;-52
2021/08/12 05:55:06;;;;;;;10.80;6.95;;;;;;;22.66;62.39;100343.93;1647865;86;21220;-51
2021/08/12 05:58:11;;;;;;;9.73;6.20;;;;;;;22.76;62.12;100341.27;1656329;85;21260;-52
2021/08/12 06:01:17;;;;;;;7.30;6.17;;;;;;;22.82;61.38;100348.61;1651843;87;21240;-52
2021/08/12 06:04:25;;;;;;;9.88;5.87;;;;;;;22.81;61.28;100353.91;1651946;85;21251;-51
2021/08/12 06:07:33;;;;;;;7.87;6.55;;;;;;;22.86;61.34;100362.37;1654711;85;21742;-54
2021/08/12 06:10:39;;;;;;;11.15;5.67;;;;;;;22.90;60.93;100362.14;1658261;85;21208;-54
2021/08/12 06:13:46;;;;;;;11.15;5.80;;;;;;;22.95;61.14;100361.68;1656132;85;21227;-53
2021/08/12 06:16:52;;;;;;;8.63;5.72;;;;;;;23.02;60.84;100353.13;1657526;85;21714;-53
2021/08/12 06:19:59;;;;;;;9.05;5.60;;;;;;;23.09;60.18;100364.39;1652205;85;21302;-55
2021/08/12 06:23:08;;;;;;;7.75;5.50;;;;;;;23.16;59.81;100358.63;1652703;85;21240;-52
2021/08/12 06:26:16;;;;;;;7.55;5.87;;;;;;;23.23;59.68;100359.30;1652390;85;21737;-53
2021/08/12 06:29:21;;;;;;;8.70;5.85;;;;;;;23.31;59.33;100365.28;1652880;85;21239;-54
2021/08/12 06:32:28;;;;;;;10.72;5.90;;;;;;;23.39;59.19;100357.00;1654236;85;21380;-52
2021/08/12 06:35:38;;;;;;;7.95;5.45;;;;;;;23.49;59.21;100350.15;1647106;85;21208;-54
2021/08/12 06:38:44;;;;;;;9.08;5.95;;;;;;;23.62;59.06;100358.14;1652574;85;21800;-53
2021/08/12 06:41:49;;;;;;;9.23;6.15;;;;;;;23.72;58.43;100352.68;1652877;87;21213;-55
2021/08/12 06:44:59;;;;;;;7.42;5.65;;;;;;;23.78;58.54;100348.83;1650929;86;21371;-54
2021/08/12 06:48:06;;;;;;;10.85;6.10;;;;;;;23.88;58.39;100355.91;1625679;87;21232;-52
2021/08/12 06:51:13;;;;;;;9.05;5.37;;;;;;;23.99;58.21;100355.52;1594434;89;21297;-53
2021/08/12 06:54:20;;;;;;;6.92;5.00;;;;;;;24.10;58.13;100352.53;1578903;90;21844;-53
2021/08/12 06:57:24;;;;;;;8.30;4.78;;;;;;;24.19;57.05;100352.37;1626390;88;21223;-53
2021/08/12 07:00:29;;;;;;;6.00;5.17;;;;;;;24.31;56.40;100359.20;1608505;88;21276;-56
2021/08/12 07:03:36;;;;;;;8.58;5.35;;;;;;;24.41;56.01;100361.52;1609482;89;21734;-58
2021/08/12 07:06:42;;;;;;;8.93;5.62;;;;;;;24.51;55.48;100357.42;1611402;88;21389;-55
2021/08/12 07:09:48;;;;;;;6.50;5.15;;;;;;;24.63;54.97;100358.61;1583294;87;21769;-57
2021/08/12 07:12:58;;;;;;;9.00;5.50;;;;;;;24.74;54.47;100361.26;1580031;91;21239;-57
2021/08/12 07:16:06;;;;;;;7.45;4.15;;;;;;;24.85;53.86;100358.81;1587569;86;21613;-56
2021/08/12 07:19:14;;;;;;;9.25;5.03;;;;;;;24.96;53.63;100358.31;1620061;87;21749;-56
2021/08/12 07:22:19;;;;;;;8.75;4.58;;;;;;;25.07;53.11;100373.25;1582867;90;21346;-57
2021/08/12 07:25:27;;;;;;;6.65;4.95;;;;;;;25.15;53.46;100364.34;1582617;87;21372;-56
2021/08/12 07:28:35;;;;;;;5.92;4.35;;;;;;;25.24;53.11;100358.49;1634705;86;21220;-56
2021/08/12 07:31:41;;;;;;;8.18;4.85;;;;;;;25.30;52.95;100359.66;1633727;86;21195;-57
2021/08/12 07:34:48;;;;;;;9.08;4.50;;;;;;;25.33;52.89;100369.47;1604334;86;21248;-59
2021/08/12 07:37:54;;;;;;;9.30;5.10;;;;;;;25.36;52.80;100371.20;1604329;88;21297;-55
2021/08/12 07:41:02;;;;;;;8.33;4.85;;;;;;;25.35;52.57;100364.47;1603880;89;21249;-55
2021/08/12 07:44:08;;;;;;;7.95;4.67;;;;;;;25.35;52.37;100367.27;1632788;86;21804;-58
2021/08/12 07:47:15;;;;;;;8.13;4.50;;;;;;;25.37;52.93;100361.67;1626555;86;21277;-54
2021/08/12 07:50:21;;;;;;;6.90;4.50;;;;;;;25.44;53.15;100368.42;1638381;87;21262;-55
2021/08/12 07:53:27;;;;;;;9.03;4.72;;;;;;;25.51;52.48;100364.83;1662742;84;21253;-55
2021/08/12 07:56:35;;;;;;;7.30;4.70;;;;;;;25.57;52.43;100366.53;1664793;84;21221;-59
2021/08/12 07:59:41;;;;;;;6.72;4.70;;;;;;;25.63;52.08;100372.44;1608710;88;21770;-57
2021/08/12 08:02:53;;;;;;;5.17;4.03;;;;;;;25.72;51.77;100368.83;1635029;86;21768;-57
2021/08/12 08:06:01;;;;;;;7.33;4.10;;;;;;;25.80;51.07;100368.30;1632910;88;22039;-58
2021/08/12 08:09:07;;;;;;;5.67;4.47;;;;;;;25.89;50.53;100384.90;1662245;85;21224;-56
2021/08/12 08:12:15;;;;;;;7.87;4.28;;;;;;;25.96;50.04;100365.83;1662514;86;21224;-57
2021/08/12 08:15:22;;;;;;;6.72;3.92;;;;;;;26.03;49.81;100364.19;1638046;86;21678;-55
2021/08/12 08:18:30;;;;;;;7.05;4.55;;;;;;;26.08;49.66;100362.80;1660222;85;21714;-59
2021/08/12 08:21:39;;;;;;;4.85;4.10;;;;;;;26.14;50.07;100356.07;1629644;88;21201;-59
2021/08/12 08:24:44;;;;;;;6.22;4.08;;;;;;;26.25;50.15;100364.78;1617323;88;21209;-59
2021/08/12 08:27:51;;;;;;;4.05;3.65;;;;;;;26.37;50.30;100354.12;1630486;83;21821;-57
2021/08/12 08:30:58;;;;;;;6.53;4.08;;;;;;;26.49;49.08;100360.32;1662395;86;21215;-57
2021/08/12 08:34:03;;;;;;;4.78;3.80;;;;;;;26.54;48.11;100361.73;1658625;85;21264;-56
2021/08/12 08:37:08;;;;;;;5.62;3.60;;;;;;;26.57;48.30;100362.57;1633805;88;21228;-56
2021/08/12 08:40:14;;;;;;;7.53;4.25;;;;;;;26.63;48.19;100354.97;1634123;88;21595;-56
2021/08/12 08:43:20;;;;;;;6.12;4.30;;;;;;;26.70;47.47;100353.62;1634814;86;21256;-55
2021/08/12 08:46:26;;;;;;;6.67;3.75;;;;;;;26.78;47.41;100355.00;1634808;86;21196;-59
2021/08/12 08:49:35;;;;;;;7.78;3.67;;;;;;;26.87;47.51;100356.95;1636597;86;21223;-57
2021/08/12 08:52:43;;;;;;;4.78;3.50;;;;;;;26.93;46.89;100346.53;1610196;87;21262;-57
2021/08/12 08:55:50;;;;;;;5.33;3.60;;;;;;;27.02;46.69;100355.52;1610953;89;21291;-56
2021/08/12 08:58:59;;;;;;;3.70;3.30;;;;;;;27.11;45.20;100365.07;1610271;87;21262;-56
2021/08/12 09:02:03;;;;;;;5.67;3.87;;;;;;;27.14;45.16;100358.87;1635091;87;21694;-57
2021/08/12 09:05:09;;;;;;;4.22;3.22;;;;;;;27.23;45.38;100362.78;1636341;86;21247;-58
2021/08/12 09:08:15;;;;;;;6.50;3.77;;;;;;;27.32;43.99;100370.92;1636312;86;21273;-57
2021/08/12 09:11:23;;;;;;;6.25;3.67;;;;;;;27.36;44.43;100367.84;1633006;87;21224;-56
2021/08/12 09:14:45;;;;;;;8.50;3.72;;;;;;;27.40;44.24;100362.48;1608733;88;21221;-57
2021/08/12 09:17:53;;;;;;;5.47;3.60;;;;;;;27.40;43.32;100364.72;1660343;84;21250;-58
2021/08/12 09:21:03;;;;;;;8.28;4.10;;;;;;;27.40;43.39;100358.27;1669432;86;21212;-55
2021/08/12 09:24:09;;;;;;;9.63;3.45;;;;;;;27.43;43.69;100359.92;1669512;84;21366;-59
2021/08/12 09:27:20;;;;;;;5.87;3.87;;;;;;;27.57;44.03;100375.08;1669668;82;21239;-55
2021/08/12 09:30:26;;;;;;;6.17;3.40;;;;;;;27.67;43.66;100375.02;1623720;87;21347;-57
2021/08/12 09:33:57;;;;;;;4.00;3.22;;;;;;;27.66;41.65;100381.79;1600651;88;21401;-57
2021/08/12 09:37:14;;;;;;;6.60;3.47;;;;;;;27.70;41.82;100382.06;1623377;88;21228;-58
2021/08/12 09:40:21;;;;;;;7.40;4.08;;;;;;;27.70;41.82;100382.06;1577032;89;22011;-56
2021/08/12 09:43:30;;;;;;;4.45;3.40;;;;;;;27.73;42.30;100378.67;1576878;90;21407;-56
2021/08/12 09:46:36;;;;;;;6.55;3.85;;;;;;;27.82;42.13;100382.55;1579886;89;21260;-59
2021/08/12 09:49:55;;;;;;;5.78;3.33;;;;;;;27.93;41.95;100398.29;1583601;90;21754;-56
2021/08/12 09:53:02;;;;;;;8.50;4.53;;;;;;;28.01;41.61;100381.35;1584000;90;21667;-58
2021/08/12 09:56:15;;;;;;;6.60;3.77;;;;;;;28.04;40.91;100390.63;1584271;90;21284;-57
2021/08/12 09:59:22;;;;;;;8.50;3.95;;;;;;;28.08;39.47;100389.78;1583825;90;21351;-57
2021/08/12 10:02:31;;;;;;;10.08;3.85;;;;;;;28.17;41.05;100393.66;1584154;90;21840;-55
2021/08/12 10:05:36;;;;;;;6.97;3.20;;;;;;;28.27;40.12;100396.97;1581240;90;21308;-57
2021/08/12 10:08:45;;;;;;;9.38;3.42;;;;;;;28.33;40.17;100400.88;1580804;89;21311;-57
2021/08/12 10:11:50;;;;;;;6.05;4.05;;;;;;;28.41;40.78;100400.81;1583626;90;21281;-57
2021/08/12 10:14:56;;;;;;;5.42;3.45;;;;;;;28.53;40.66;100404.98;1584076;89;21789;-57
2021/08/12 10:18:03;;;;;;;7.15;3.60;;;;;;;28.62;40.97;100413.06;1583205;90;21320;-56
2021/08/12 10:21:08;;;;;;;4.65;3.62;;;;;;;28.75;40.79;100415.22;1583567;90;21236;-55
2021/08/12 10:24:15;;;;;;;7.10;3.77;;;;;;;28.78;39.66;100412.41;1583591;90;21244;-59
2021/08/12 10:27:22;;;;;;;7.05;3.67;;;;;;;28.72;39.26;100413.00;1586724;89;21227;-57
2021/08/12 10:30:29;;;;;;;3.72;3.17;;;;;;;28.65;39.19;100414.47;1616434;83;21811;-58
2021/08/12 10:33:35;;;;;;;7.17;4.03;;;;;;;28.68;39.58;100422.34;1634166;86;21938;-55
2021/08/12 10:36:43;;;;;;;5.65;3.90;;;;;;;28.73;38.91;100411.03;1634284;88;21268;-61
2021/08/12 10:39:50;;;;;;;4.65;3.30;;;;;;;28.81;39.53;100418.86;1641760;85;21234;-56
2021/08/12 10:42:56;;;;;;;6.90;4.47;;;;;;;28.90;39.32;100408.62;1627105;87;21908;-57
2021/08/12 10:46:07;;;;;;;6.42;3.77;;;;;;;28.99;38.99;100407.69;1637198;87;21709;-56
2021/08/12 10:49:33;;;;;;;7.28;3.77;;;;;;;29.11;38.93;100413.80;1627594;87;21808;-57
2021/08/12 10:52:38;;;;;;;6.05;3.72;;;;;;;29.29;38.53;100422.08;1616587;87;21258;-58
2021/08/12 10:55:52;;;;;;;7.72;3.80;;;;;;;29.36;37.46;100409.88;1627872;88;21911;-58
2021/08/12 10:59:03;;;;;;;5.50;3.62;;;;;;;29.43;37.14;100409.53;1638502;86;21269;-59
2021/08/12 11:02:30;;;;;;;4.58;3.40;;;;;;;29.51;37.12;100422.39;1619238;87;21776;-57
2021/08/12 11:05:42;;;;;;;5.20;3.85;;;;;;;29.62;37.39;100424.55;1623322;87;21739;-56
2021/08/12 11:09:02;;;;;;;5.50;3.80;;;;;;;29.73;37.50;100428.97;1663084;85;21303;-58
2021/08/12 11:12:09;;;;;;;6.30;3.08;;;;;;;29.84;36.39;100422.91;1635029;87;21200;-60
2021/08/12 11:15:19;;;;;;;4.45;3.20;;;;;;;30.00;36.49;100420.13;1663278;86;21780;-56
2021/08/12 11:18:25;;;;;;;5.67;3.58;;;;;;;30.11;36.53;100425.90;1662934;85;21251;-57
2021/08/12 11:21:44;;;;;;;8.10;3.83;;;;;;;30.26;35.71;100424.33;1630570;88;21393;-56
2021/08/12 11:24:56;;;;;;;4.67;3.35;;;;;;;30.26;35.71;100424.33;1626132;87;21378;-56
2021/08/12 11:28:03;;;;;;;6.28;3.87;;;;;;;30.40;35.51;100419.59;1626416;87;21248;-58
2021/08/12 11:31:10;;;;;;;6.45;3.35;;;;;;;30.47;34.93;100425.71;1618330;85;21442;-58
2021/08/12 11:34:34;;;;;;;6.53;3.62;;;;;;;30.47;34.93;100425.71;1603537;88;21256;-59
2021/08/12 11:37:42;;;;;;;6.75;3.85;;;;;;;30.54;34.44;100423.33;1590996;89;21373;-57
2021/08/12 11:40:48;;;;;;;5.80;3.45;;;;;;;30.52;33.32;100427.02;1603292;89;21769;-57
2021/08/12 11:43:54;;;;;;;4.12;2.95;;;;;;;30.28;32.28;100431.93;1603438;88;21280;-57
2021/08/12 11:47:02;;;;;;;6.58;3.20;;;;;;;30.28;32.28;100431.93;1603543;89;21726;-57
2021/08/12 11:50:14;;;;;;;4.12;3.30;;;;;;;30.21;33.15;100431.45;1610383;88;21413;-56
2021/08/12 11:53:45;;;;;;;5.12;3.72;;;;;;;30.21;33.15;100431.45;1578252;89;21507;-58
2021/08/12 11:56:52;;;;;;;6.20;3.55;;;;;;;30.25;33.38;100433.95;1609903;88;21286;-53
2021/08/12 11:59:58;;;;;;;8.70;3.37;;;;;;;30.36;33.06;100428.98;1603375;88;21272;-57
2021/08/12 12:03:09;;;;;;;4.55;3.37;;;;;;;30.48;33.07;100430.77;1603690;87;21280;-61
2021/08/12 12:06:15;;;;;;;6.00;3.77;;;;;;;30.48;33.07;100430.77;1597384;89;21742;-58
2021/08/12 12:09:34;;;;;;;8.85;3.12;;;;;;;30.52;31.83;100419.13;1587813;88;21273;-57
2021/08/12 12:12:39;;;;;;;7.03;3.12;;;;;;;30.48;32.68;100417.48;1602968;89;21228;-58
2021/08/12 12:15:50;;;;;;;5.40;3.55;;;;;;;30.50;32.71;100420.86;1603054;89;21398;-57
2021/08/12 12:18:57;;;;;;;6.78;3.30;;;;;;;30.50;32.71;100420.86;1574912;90;21256;-57
2021/08/12 12:22:03;;;;;;;6.12;3.30;;;;;;;30.31;32.87;100417.19;1573621;91;21757;-61
2021/08/12 12:25:10;;;;;;;6.05;3.22;;;;;;;30.12;32.40;100417.72;1573875;91;21276;-60
2021/08/12 12:28:15;;;;;;;4.55;3.50;;;;;;;29.93;32.98;100415.99;1573806;90;21380;-58
2021/08/12 12:31:29;;;;;;;7.17;3.30;;;;;;;29.85;33.17;100434.45;1576207;84;21782;-61
2021/08/12 12:34:35;;;;;;;4.83;3.22;;;;;;;29.78;33.84;100418.44;1615427;88;21832;-58
2021/08/12 12:37:44;;;;;;;7.05;3.42;;;;;;;29.75;33.21;100419.63;1654101;85;21380;-59
2021/08/12 12:40:50;;;;;;;8.23;3.60;;;;;;;29.71;32.65;100427.01;1601912;89;21252;-58
2021/08/12 12:43:57;;;;;;;6.65;3.80;;;;;;;29.64;32.97;100431.59;1582184;88;22033;-57
2021/08/12 12:47:05;;;;;;;5.65;3.45;;;;;;;29.58;33.11;100430.51;1654851;86;21701;-58
2021/08/12 12:50:25;;;;;;;7.90;3.42;;;;;;;29.61;33.29;100428.49;1595942;88;21265;-52
2021/08/12 12:53:52;;;;;;;7.83;3.55;;;;;;;29.65;34.91;100433.86;1628263;86;21252;-53
2021/08/12 12:57:00;;;;;;;6.70;3.83;;;;;;;29.63;35.34;100431.87;1578366;90;21297;-51
2021/08/12 13:00:06;;;;;;;5.78;3.40;;;;;;;29.50;35.58;100436.24;1652020;85;21224;-51
2021/08/12 13:03:13;;;;;;;5.22;3.37;;;;;;;29.43;35.62;100435.74;1601732;89;21337;-53
2021/08/12 13:06:25;;;;;;;4.78;3.20;;;;;;;29.40;34.92;100436.34;1588538;90;21714;-53
2021/08/12 13:09:40;;;;;;;6.90;3.70;;;;;;;29.35;34.52;100430.78;1602016;89;21357;-55
2021/08/12 13:12:46;;;;;;;7.55;4.00;;;;;;;29.36;34.82;100442.88;1597137;87;21241;-53
2021/08/12 13:15:59;;;;;;;6.53;4.30;;;;;;;29.32;35.77;100439.81;1603695;87;21233;-54
2021/08/12 13:19:08;;;;;;;7.03;4.00;;;;;;;29.31;35.69;100447.16;1655384;85;21402;-51
2021/08/12 13:22:17;;;;;;;7.03;3.60;;;;;;;29.26;35.29;100443.83;1603373;89;21316;-52
2021/08/12 13:25:26;;;;;;;7.60;3.40;;;;;;;29.25;34.80;100442.16;1655742;86;21263;-52
2021/08/12 13:28:40;;;;;;;5.50;3.72;;;;;;;29.26;34.95;100451.47;1588093;88;21264;-52
2021/08/12 13:31:57;;;;;;;5.40;3.90;;;;;;;29.31;34.93;100451.39;1655514;86;21204;-52
2021/08/12 13:35:03;;;;;;;6.17;3.40;;;;;;;29.33;35.06;100458.44;1601421;89;21240;-54
2021/08/12 13:38:10;;;;;;;6.78;3.95;;;;;;;29.27;35.73;100441.30;1605896;88;21252;-53
2021/08/12 13:41:15;;;;;;;6.95;3.22;;;;;;;29.24;35.74;100445.53;1633264;87;21192;-54
2021/08/12 13:44:19;;;;;;;6.40;4.03;;;;;;;29.27;34.79;100456.81;1595759;89;21235;-53
2021/08/12 13:47:26;;;;;;;5.33;3.65;;;;;;;29.23;35.16;100451.48;1637955;87;21774;-51
2021/08/12 13:50:32;;;;;;;6.78;3.50;;;;;;;29.18;34.99;100452.93;1668767;85;21221;-54
2021/08/12 13:53:37;;;;;;;4.97;3.40;;;;;;;29.10;34.63;100476.98;1651059;85;21395;-52
2021/08/12 13:56:43;;;;;;;8.03;3.83;;;;;;;29.02;34.86;100461.22;1639078;86;21221;-53
2021/08/12 13:59:49;;;;;;;8.05;3.80;;;;;;;29.00;34.28;100467.75;1637984;85;21644;-52
2021/08/12 14:02:56;;;;;;;8.18;3.25;;;;;;;28.98;34.80;100463.81;1639409;85;21206;-56
2021/08/12 14:06:02;;;;;;;5.22;3.33;;;;;;;28.89;35.63;100466.97;1649820;86;21216;-59
2021/08/12 14:09:10;;;;;;;7.60;4.03;;;;;;;28.91;35.98;100472.30;1660206;86;21236;-58
2021/08/12 14:12:15;;;;;;;6.95;3.92;;;;;;;28.87;35.52;100475.45;1653389;86;21267;-59
2021/08/12 14:15:21;;;;;;;8.55;3.98;;;;;;;28.83;35.28;100472.94;1598007;87;21221;-58
2021/08/12 14:18:27;;;;;;;6.60;4.20;;;;;;;28.88;35.36;100472.90;1618995;87;21808;-53
2021/08/12 14:21:34;;;;;;;6.20;3.52;;;;;;;28.91;35.77;100477.39;1610275;88;21353;-56
2021/08/12 14:24:39;;;;;;;7.40;4.10;;;;;;;28.89;36.06;100487.28;1636940;86;21271;-55
2021/08/12 14:27:47;;;;;;;5.70;3.70;;;;;;;28.85;36.58;100479.12;1654331;85;21250;-56
2021/08/12 14:30:54;;;;;;;5.92;3.58;;;;;;;28.84;36.15;100477.45;1602227;88;21233;-56
2021/08/12 14:33:59;;;;;;;8.68;3.75;;;;;;;28.78;36.57;100474.41;1605236;85;21388;-57